createdAt,value
2016-05-05T00:00:35.461Z,0
2016-05-05T00:01:35.432Z,0
2016-05-05T00:02:35.420Z,0
2016-05-05T00:03:35.250Z,0
2016-05-05T00:04:35.378Z,0
2016-05-05T00:05:35.458Z,0
2016-05-05T00:06:35.180Z,0
2016-05-05T00:07:35.573Z,0
2016-05-05T00:08:35.154Z,0
2016-05-05T00:09:35.658Z,0
2016-05-05T00:10:35.097Z,0
2016-05-05T00:11:35.100Z,0
2016-05-05T00:12:35.227Z,0
2016-05-05T00:13:36.261Z,0
2016-05-05T00:14:35.186Z,0
2016-05-05T00:15:35.610Z,0
2016-05-05T00:16:35.160Z,0
2016-05-05T00:17:34.974Z,0
2016-05-05T00:18:35.119Z,0
2016-05-05T00:19:35.090Z,0
2016-05-05T00:20:35.077Z,0
2016-05-05T00:21:35.502Z,0
2016-05-05T00:22:35.051Z,0
2016-05-05T00:23:35.616Z,0
2016-05-05T00:24:35.010Z,0
2016-05-05T00:25:34.996Z,0
2016-05-05T00:26:34.968Z,0
2016-05-05T00:27:34.784Z,0
2016-05-05T00:28:34.770Z,0
2016-05-05T00:29:34.898Z,0
2016-05-05T00:30:34.978Z,0
2016-05-05T00:31:34.857Z,0
2016-05-05T00:32:34.859Z,0
2016-05-05T00:33:34.830Z,0
2016-05-05T00:34:34.662Z,0
2016-05-05T00:35:34.805Z,0
2016-05-05T00:36:34.776Z,0
2016-05-05T00:37:34.748Z,0
2016-05-05T00:38:34.422Z,0
2016-05-05T00:39:35.628Z,0
2016-05-05T00:40:34.708Z,0
2016-05-05T00:41:34.680Z,0
2016-05-05T00:42:34.496Z,0
2016-05-05T00:43:34.655Z,0
2016-05-05T00:44:34.626Z,0
2016-05-05T00:45:34.597Z,0
2016-05-05T00:46:34.584Z,0
2016-05-05T00:47:34.869Z,0
2016-05-05T00:48:34.543Z,0
2016-05-05T00:49:34.530Z,0
2016-05-05T00:50:34.532Z,0
2016-05-05T00:51:34.349Z,0
2016-05-05T00:52:34.476Z,0
2016-05-05T00:53:34.447Z,0
2016-05-05T00:54:34.934Z,0
2016-05-05T00:55:34.265Z,0
2016-05-05T00:56:34.409Z,0
2016-05-05T00:57:34.380Z,0
2016-05-05T00:58:34.211Z,0
2016-05-05T00:59:34.338Z,0
2016-05-05T01:00:34.169Z,0
2016-05-05T01:01:34.297Z,0
2016-05-05T01:02:34.550Z,0
2016-05-05T01:03:34.286Z,0
2016-05-05T01:04:34.101Z,0
2016-05-05T01:05:34.245Z,0
2016-05-05T01:06:34.248Z,0
2016-05-05T01:07:34.203Z,0
2016-05-05T01:08:34.175Z,0
2016-05-05T01:09:34.349Z,0
2016-05-05T01:10:34.539Z,0
2016-05-05T01:11:34.120Z,0
2016-05-05T01:12:34.107Z,0
2016-05-05T01:13:33.969Z,0
2016-05-05T01:14:34.066Z,0
2016-05-05T01:15:34.053Z,0
2016-05-05T01:16:34.041Z,0
2016-05-05T01:17:34.027Z,0
2016-05-05T01:18:34.530Z,0
2016-05-05T01:19:33.985Z,0
2016-05-05T01:20:33.957Z,0
2016-05-05T01:21:33.788Z,0
2016-05-05T01:22:33.807Z,0
2016-05-05T01:23:33.762Z,0
2016-05-05T01:24:33.905Z,0
2016-05-05T01:25:33.877Z,0
2016-05-05T01:26:34.568Z,0
2016-05-05T01:27:33.663Z,0
2016-05-05T01:28:33.682Z,0
2016-05-05T01:29:33.793Z,0
2016-05-05T01:30:33.781Z,0
2016-05-05T01:31:33.753Z,0
2016-05-05T01:32:33.771Z,0
2016-05-05T01:33:33.711Z,0
2016-05-05T01:34:33.807Z,0
2016-05-05T01:35:33.685Z,0
2016-05-05T01:36:33.517Z,0
2016-05-05T01:37:33.503Z,0
2016-05-05T01:38:33.475Z,0
2016-05-05T01:39:33.399Z,0
2016-05-05T01:40:33.589Z,0
2016-05-05T01:41:33.592Z,0
2016-05-05T01:42:33.814Z,0
2016-05-05T01:43:33.581Z,0
2016-05-05T01:44:33.522Z,0
2016-05-05T01:45:33.509Z,0
2016-05-05T01:46:33.496Z,0
2016-05-05T01:47:33.466Z,0
2016-05-05T01:48:33.454Z,0
2016-05-05T01:49:33.269Z,0
2016-05-05T01:50:33.819Z,0
2016-05-05T01:51:33.400Z,0
2016-05-05T01:52:33.392Z,0
2016-05-05T01:53:33.265Z,0
2016-05-05T01:54:33.467Z,0
2016-05-05T01:55:33.466Z,0
2016-05-05T01:56:33.339Z,0
2016-05-05T01:57:33.652Z,0
2016-05-05T01:58:33.357Z,0
2016-05-05T01:59:33.344Z,0
2016-05-05T02:00:33.518Z,0
2016-05-05T02:01:33.491Z,0
2016-05-05T02:02:33.488Z,0
2016-05-05T02:03:33.481Z,0
2016-05-05T02:04:53.520Z,0
2016-05-05T02:05:33.764Z,0
2016-05-05T02:06:33.272Z,0
2016-05-05T02:07:33.419Z,0
2016-05-05T02:08:33.408Z,0
2016-05-05T02:09:33.429Z,0
2016-05-05T02:10:33.370Z,0
2016-05-05T02:11:33.358Z,0
2016-05-05T02:12:33.192Z,0
2016-05-05T02:13:33.774Z,0
2016-05-05T02:14:33.307Z,0
2016-05-05T02:15:33.296Z,0
2016-05-05T02:16:33.267Z,0
2016-05-05T02:17:33.255Z,0
2016-05-05T02:18:33.087Z,0
2016-05-05T02:19:33.215Z,0
2016-05-05T02:20:33.061Z,0
2016-05-05T02:21:33.783Z,0
2016-05-05T02:22:33.162Z,0
2016-05-05T02:23:33.150Z,0
2016-05-05T02:24:33.152Z,0
2016-05-05T02:25:33.140Z,0
2016-05-05T02:26:33.079Z,0
2016-05-05T02:27:32.910Z,0
2016-05-05T02:28:33.054Z,0
2016-05-05T02:29:32.932Z,0
2016-05-05T02:30:33.013Z,0
2016-05-05T02:31:32.843Z,0
2016-05-05T02:32:32.831Z,0
2016-05-05T02:33:32.958Z,0
2016-05-05T02:34:32.945Z,0
2016-05-05T02:35:32.932Z,0
2016-05-05T02:36:32.763Z,0
2016-05-05T02:37:33.094Z,0
2016-05-05T02:38:32.878Z,0
2016-05-05T02:39:33.115Z,0
2016-05-05T02:40:32.681Z,0
2016-05-05T02:41:32.667Z,0
2016-05-05T02:42:32.811Z,0
2016-05-05T02:43:32.782Z,0
2016-05-05T02:44:32.754Z,0
2016-05-05T02:45:33.084Z,0
2016-05-05T02:46:32.727Z,0
2016-05-05T02:47:32.714Z,0
2016-05-05T02:48:32.702Z,0
2016-05-05T02:49:32.516Z,0
2016-05-05T02:50:32.661Z,0
2016-05-05T02:51:32.647Z,0
2016-05-05T02:52:32.713Z,0
2016-05-05T02:53:32.605Z,0
2016-05-05T02:54:32.624Z,0
2016-05-05T02:55:32.408Z,0
2016-05-05T02:56:32.552Z,0
2016-05-05T02:57:32.366Z,0
2016-05-05T02:58:32.494Z,0
2016-05-05T02:59:32.326Z,0
2016-05-05T03:00:32.719Z,0
2016-05-05T03:01:32.284Z,0
2016-05-05T03:02:32.271Z,0
2016-05-05T03:03:32.414Z,0
2016-05-05T03:04:32.385Z,0
2016-05-05T03:05:32.373Z,0
2016-05-05T03:06:32.375Z,0
2016-05-05T03:07:32.347Z,0
2016-05-05T03:08:32.568Z,0
2016-05-05T03:09:34.259Z,0
2016-05-05T03:10:32.292Z,0
2016-05-05T03:11:32.107Z,0
2016-05-05T03:12:32.250Z,0
2016-05-05T03:13:32.238Z,0
2016-05-05T03:14:32.053Z,0
2016-05-05T03:15:32.180Z,0
2016-05-05T03:16:32.574Z,0
2016-05-05T03:17:32.014Z,0
2016-05-05T03:18:32.142Z,0
2016-05-05T03:19:31.958Z,0
2016-05-05T03:20:32.085Z,0
2016-05-05T03:21:31.930Z,0
2016-05-05T03:22:32.074Z,0
2016-05-05T03:23:31.733Z,0
2016-05-05T03:24:32.486Z,0
2016-05-05T03:25:32.005Z,0
2016-05-05T03:26:32.148Z,0
2016-05-05T03:27:31.994Z,0
2016-05-05T03:28:31.965Z,0
2016-05-05T03:29:31.953Z,0
2016-05-05T03:30:31.924Z,0
2016-05-05T03:31:31.754Z,0
2016-05-05T03:32:32.023Z,0
2016-05-05T03:33:31.713Z,0
2016-05-05T03:34:32.107Z,0
2016-05-05T03:35:31.829Z,0
2016-05-05T03:36:31.800Z,0
2016-05-05T03:37:31.849Z,0
2016-05-05T03:38:31.774Z,0
2016-05-05T03:39:32.526Z,0
2016-05-05T03:40:32.045Z,0
2016-05-05T03:41:31.563Z,0
2016-05-05T03:42:32.144Z,0
2016-05-05T03:43:31.381Z,0
2016-05-05T03:44:31.665Z,0
2016-05-05T03:45:31.495Z,0
2016-05-05T03:46:31.467Z,0
2016-05-05T03:47:31.455Z,0
2016-05-05T03:48:32.036Z,0
2016-05-05T03:49:31.428Z,0
2016-05-05T03:50:32.149Z,0
2016-05-05T03:51:31.543Z,0
2016-05-05T03:52:31.530Z,0
2016-05-05T03:53:31.345Z,0
2016-05-05T03:54:32.629Z,0
2016-05-05T03:55:31.460Z,0
2016-05-05T03:56:31.463Z,0
2016-05-05T03:57:31.419Z,0
2016-05-05T03:58:31.421Z,0
2016-05-05T03:59:31.221Z,0
2016-05-05T04:00:31.067Z,0
2016-05-05T04:01:31.195Z,0
2016-05-05T04:02:31.338Z,0
2016-05-05T04:03:31.309Z,0
2016-05-05T04:04:31.296Z,0
2016-05-05T04:05:31.268Z,0
2016-05-05T04:06:31.459Z,0
2016-05-05T04:07:31.243Z,0
2016-05-05T04:08:31.073Z,0
2016-05-05T04:09:31.310Z,0
2016-05-05T04:10:31.047Z,0
2016-05-05T04:11:31.159Z,0
2016-05-05T04:12:31.147Z,0
2016-05-05T04:13:31.040Z,0
2016-05-05T04:14:30.808Z,0
2016-05-05T04:15:31.108Z,0
2016-05-05T04:16:31.079Z,0
2016-05-05T04:17:31.067Z,0
2016-05-05T04:18:31.038Z,0
2016-05-05T04:19:31.025Z,0
2016-05-05T04:20:30.855Z,0
2016-05-05T04:21:31.077Z,0
2016-05-05T04:22:30.970Z,0
2016-05-05T04:23:30.957Z,0
2016-05-05T04:24:32.241Z,0
2016-05-05T04:25:30.744Z,0
2016-05-05T04:26:30.919Z,0
2016-05-05T04:27:30.719Z,0
2016-05-05T04:28:30.861Z,0
2016-05-05T04:29:31.036Z,0
2016-05-05T04:30:30.851Z,0
2016-05-05T04:31:30.651Z,0
2016-05-05T04:32:30.779Z,0
2016-05-05T04:33:30.781Z,0
2016-05-05T04:34:30.752Z,0
2016-05-05T04:35:30.723Z,0
2016-05-05T04:36:30.712Z,0
2016-05-05T04:37:31.042Z,0
2016-05-05T04:38:30.529Z,0
2016-05-05T04:39:30.516Z,0
2016-05-05T04:40:30.503Z,0
2016-05-05T04:41:30.615Z,0
2016-05-05T04:42:30.603Z,0
2016-05-05T04:43:30.589Z,0
2016-05-05T04:44:30.108Z,0
2016-05-05T04:45:31.095Z,0
2016-05-05T04:46:30.364Z,0
2016-05-05T04:47:30.522Z,0
2016-05-05T04:48:30.477Z,0
2016-05-05T04:49:30.465Z,0
2016-05-05T04:50:30.452Z,0
2016-05-05T04:51:30.455Z,0
2016-05-05T04:52:30.269Z,0
2016-05-05T04:53:31.117Z,0
2016-05-05T04:54:30.931Z,0
2016-05-05T04:55:30.402Z,0
2016-05-05T04:56:30.328Z,0
2016-05-05T04:57:30.314Z,0
2016-05-05T04:58:30.316Z,0
2016-05-05T04:59:30.289Z,0
2016-05-05T05:00:30.276Z,0
2016-05-05T05:01:30.357Z,0
2016-05-05T05:02:30.235Z,0
2016-05-05T05:03:30.080Z,0
2016-05-05T05:04:30.192Z,0
2016-05-05T05:05:30.179Z,0
2016-05-05T05:06:30.168Z,0
2016-05-05T05:07:30.123Z,0
2016-05-05T05:08:30.126Z,0
2016-05-05T05:09:32.018Z,0
2016-05-05T05:10:30.084Z,0
2016-05-05T05:11:30.070Z,0
2016-05-05T05:12:29.730Z,0
2016-05-05T05:13:30.029Z,0
2016-05-05T05:14:29.845Z,0
2016-05-05T05:15:29.988Z,0
2016-05-05T05:16:30.022Z,0
2016-05-05T05:17:30.352Z,0
2016-05-05T05:18:29.949Z,0
2016-05-05T05:19:29.920Z,0
2016-05-05T05:20:29.751Z,0
2016-05-05T05:21:29.879Z,0
2016-05-05T05:22:29.850Z,0
2016-05-05T05:23:29.838Z,0
2016-05-05T05:24:30.028Z,0
2016-05-05T05:25:29.796Z,0
2016-05-05T05:26:29.783Z,0
2016-05-05T05:27:29.613Z,0
2016-05-05T05:28:29.601Z,0
2016-05-05T05:29:29.760Z,0
2016-05-05T05:30:29.716Z,0
2016-05-05T05:31:29.546Z,0
2016-05-05T05:32:30.018Z,0
2016-05-05T05:33:29.677Z,0
2016-05-05T05:34:29.320Z,0
2016-05-05T05:35:29.635Z,0
2016-05-05T05:36:29.435Z,0
2016-05-05T05:37:29.578Z,0
2016-05-05T05:38:29.581Z,0
2016-05-05T05:39:30.677Z,0
2016-05-05T05:40:29.993Z,0
2016-05-05T05:41:29.526Z,0
2016-05-05T05:42:29.498Z,0
2016-05-05T05:43:29.469Z,0
2016-05-05T05:44:29.456Z,0
2016-05-05T05:45:29.428Z,0
2016-05-05T05:46:29.259Z,0
2016-05-05T05:47:29.402Z,0
2016-05-05T05:48:30.030Z,0
2016-05-05T05:49:29.361Z,0
2016-05-05T05:50:29.347Z,0
2016-05-05T05:51:29.319Z,0
2016-05-05T05:52:29.306Z,0
2016-05-05T05:53:29.293Z,0
2016-05-05T05:54:29.764Z,0
2016-05-05T05:55:29.283Z,0
2016-05-05T05:56:29.332Z,0
2016-05-05T05:57:29.054Z,0
2016-05-05T05:58:29.213Z,0
2016-05-05T05:59:29.028Z,0
2016-05-05T06:00:29.155Z,0
2016-05-05T06:01:29.143Z,0
2016-05-05T06:02:28.817Z,0
2016-05-05T06:03:29.101Z,0
2016-05-05T06:04:29.291Z,0
2016-05-05T06:05:29.091Z,0
2016-05-05T06:06:29.047Z,0
2016-05-05T06:07:29.034Z,0
2016-05-05T06:08:29.020Z,0
2016-05-05T06:09:29.007Z,0
2016-05-05T06:10:29.011Z,0
2016-05-05T06:11:29.029Z,0
2016-05-05T06:12:29.328Z,0
2016-05-05T06:13:28.925Z,0
2016-05-05T06:14:28.896Z,0
2016-05-05T06:15:28.961Z,0
2016-05-05T06:16:28.870Z,0
2016-05-05T06:17:28.842Z,0
2016-05-05T06:18:28.828Z,0
2016-05-05T06:19:28.847Z,0
2016-05-05T06:20:28.647Z,0
2016-05-05T06:21:28.775Z,0
2016-05-05T06:22:28.605Z,0
2016-05-05T06:23:29.118Z,0
2016-05-05T06:24:28.574Z,0
2016-05-05T06:25:28.732Z,0
2016-05-05T06:26:28.689Z,0
2016-05-05T06:27:28.972Z,0
2016-05-05T06:28:28.490Z,0
2016-05-05T06:29:28.493Z,0
2016-05-05T06:30:28.605Z,0
2016-05-05T06:31:28.593Z,0
2016-05-05T06:32:28.424Z,0
2016-05-05T06:33:28.551Z,0
2016-05-05T06:34:28.366Z,0
2016-05-05T06:35:28.806Z,0
2016-05-05T06:36:28.496Z,0
2016-05-05T06:37:28.499Z,0
2016-05-05T06:38:28.455Z,0
2016-05-05T06:39:29.426Z,0
2016-05-05T06:40:28.445Z,0
2016-05-05T06:41:28.416Z,0
2016-05-05T06:42:28.232Z,0
2016-05-05T06:43:28.984Z,0
2016-05-05T06:44:28.362Z,0
2016-05-05T06:45:28.380Z,0
2016-05-05T06:46:28.305Z,0
2016-05-05T06:47:28.292Z,0
2016-05-05T06:48:28.278Z,0
2016-05-05T06:49:28.266Z,0
2016-05-05T06:50:28.081Z,0
2016-05-05T06:51:28.224Z,0
2016-05-05T06:52:28.211Z,0
2016-05-05T06:53:28.402Z,0
2016-05-05T06:54:28.077Z,0
2016-05-05T06:55:28.141Z,0
2016-05-05T06:56:28.144Z,0
2016-05-05T06:57:28.116Z,0
2016-05-05T06:58:28.102Z,0
2016-05-05T06:59:28.277Z,0
2016-05-05T07:00:27.889Z,0
2016-05-05T07:01:28.346Z,0
2016-05-05T07:02:27.879Z,0
2016-05-05T07:03:28.007Z,0
2016-05-05T07:04:28.010Z,0
2016-05-05T07:05:27.810Z,0
2016-05-05T07:06:27.952Z,0
2016-05-05T07:07:28.080Z,0
2016-05-05T07:08:27.911Z,0
2016-05-05T07:09:28.898Z,0
2016-05-05T07:10:27.885Z,0
2016-05-05T07:11:27.840Z,0
2016-05-05T07:12:27.687Z,0
2016-05-05T07:13:27.831Z,0
2016-05-05T07:14:27.803Z,0
2016-05-05T07:15:28.242Z,0
2016-05-05T07:16:27.619Z,0
2016-05-05T07:17:28.342Z,0
2016-05-05T07:18:27.734Z,0
2016-05-05T07:19:27.394Z,0
2016-05-05T07:20:27.708Z,0
2016-05-05T07:21:27.664Z,0
2016-05-05T07:22:27.667Z,0
2016-05-05T07:23:27.638Z,0
2016-05-05T07:24:27.750Z,0
2016-05-05T07:25:27.613Z,0
2016-05-05T07:26:27.288Z,0
2016-05-05T07:27:27.415Z,0
2016-05-05T07:28:27.558Z,0
2016-05-05T07:29:27.546Z,0
2016-05-05T07:30:27.517Z,0
2016-05-05T07:31:27.332Z,0
2016-05-05T07:32:27.319Z,0
2016-05-05T07:33:27.650Z,0
2016-05-05T07:34:27.449Z,0
2016-05-05T07:35:27.437Z,0
2016-05-05T07:36:27.393Z,0
2016-05-05T07:37:27.379Z,0
2016-05-05T07:38:27.367Z,0
2016-05-05T07:39:27.790Z,0
2016-05-05T07:40:27.341Z,0
2016-05-05T07:41:27.156Z,0
2016-05-05T07:42:27.298Z,0
2016-05-05T07:43:27.287Z,0
2016-05-05T07:44:27.258Z,0
2016-05-05T07:45:27.229Z,0
2016-05-05T07:46:27.231Z,0
2016-05-05T07:47:27.062Z,0
2016-05-05T07:48:27.284Z,0
2016-05-05T07:49:27.021Z,0
2016-05-05T07:50:27.150Z,0
2016-05-05T07:51:27.136Z,0
2016-05-05T07:52:26.951Z,0
2016-05-05T07:53:27.110Z,0
2016-05-05T07:54:27.691Z,0
2016-05-05T07:55:27.068Z,0
2016-05-05T07:56:27.290Z,0
2016-05-05T07:57:26.871Z,0
2016-05-05T07:58:27.030Z,0
2016-05-05T07:59:26.674Z,0
2016-05-05T08:00:26.816Z,0
2016-05-05T08:01:26.960Z,0
2016-05-05T08:02:26.931Z,0
2016-05-05T08:03:26.762Z,0
2016-05-05T08:04:27.296Z,0
2016-05-05T08:05:26.893Z,0
2016-05-05T08:06:26.849Z,0
2016-05-05T08:07:26.851Z,0
2016-05-05T08:08:26.822Z,0
2016-05-05T08:09:27.732Z,0
2016-05-05T08:10:26.796Z,0
2016-05-05T08:11:26.768Z,0
2016-05-05T08:12:27.301Z,0
2016-05-05T08:13:26.757Z,0
2016-05-05T08:14:26.714Z,0
2016-05-05T08:15:26.560Z,0
2016-05-05T08:16:26.672Z,0
2016-05-05T08:17:26.689Z,0
2016-05-05T08:18:26.334Z,0
2016-05-05T08:19:26.633Z,0
2016-05-05T08:20:27.308Z,0
2016-05-05T08:21:26.592Z,0
2016-05-05T08:22:26.439Z,0
2016-05-05T08:23:26.566Z,0
2016-05-05T08:24:26.553Z,0
2016-05-05T08:25:26.524Z,0
2016-05-05T08:26:26.496Z,0
2016-05-05T08:27:26.483Z,0
2016-05-05T08:28:26.595Z,0
2016-05-05T08:29:26.300Z,0
2016-05-05T08:30:26.428Z,0
2016-05-05T08:31:26.431Z,0
2016-05-05T08:32:26.402Z,0
2016-05-05T08:33:26.374Z,0
2016-05-05T08:34:26.361Z,0
2016-05-05T08:35:26.348Z,0
2016-05-05T08:36:26.585Z,0
2016-05-05T08:37:26.307Z,0
2016-05-05T08:38:26.137Z,0
2016-05-05T08:39:26.124Z,0
2016-05-05T08:40:26.251Z,0
2016-05-05T08:41:26.223Z,0
2016-05-05T08:42:26.070Z,0
2016-05-05T08:43:26.198Z,0
2016-05-05T08:44:26.575Z,0
2016-05-05T08:45:26.173Z,0
2016-05-05T08:46:26.143Z,0
2016-05-05T08:47:26.130Z,0
2016-05-05T08:48:26.117Z,0
2016-05-05T08:49:25.933Z,0
2016-05-05T08:50:26.092Z,0
2016-05-05T08:51:26.219Z,0
2016-05-05T08:52:26.050Z,0
2016-05-05T08:53:26.022Z,0
2016-05-05T08:54:26.289Z,0
2016-05-05T08:55:26.011Z,0
2016-05-05T08:56:25.967Z,0
2016-05-05T08:57:25.814Z,0
2016-05-05T08:58:25.941Z,12
2016-05-05T08:59:26.209Z,12
2016-05-05T09:00:25.759Z,12
2016-05-05T09:01:25.887Z,12
2016-05-05T09:02:25.873Z,12
2016-05-05T09:03:25.705Z,12
2016-05-05T09:04:25.832Z,8
2016-05-05T09:05:25.804Z,8
2016-05-05T09:06:25.806Z,8
2016-05-05T09:07:26.059Z,8
2016-05-05T09:08:25.609Z,8
2016-05-05T09:09:26.143Z,8
2016-05-05T09:10:25.723Z,8
2016-05-05T09:11:25.695Z,8
2016-05-05T09:12:25.370Z,8
2016-05-05T09:13:25.513Z,8
2016-05-05T09:14:25.656Z,8
2016-05-05T09:15:26.221Z,8
2016-05-05T09:16:25.615Z,12
2016-05-05T09:17:25.602Z,12
2016-05-05T09:18:25.572Z,12
2016-05-05T09:19:25.560Z,12
2016-05-05T09:20:25.391Z,8
2016-05-05T09:21:25.534Z,8
2016-05-05T09:22:25.506Z,8
2016-05-05T09:23:26.242Z,8
2016-05-05T09:24:25.761Z,8
2016-05-05T09:25:25.450Z,8
2016-05-05T09:26:25.267Z,8
2016-05-05T09:27:25.425Z,12
2016-05-05T09:28:25.397Z,12
2016-05-05T09:29:25.228Z,8
2016-05-05T09:30:25.388Z,8
2016-05-05T09:31:25.333Z,8
2016-05-05T09:32:25.651Z,8
2016-05-05T09:33:25.309Z,8
2016-05-05T09:34:25.296Z,8
2016-05-05T09:35:25.283Z,24
2016-05-05T09:36:25.239Z,24
2016-05-05T09:37:25.226Z,24
2016-05-05T09:38:25.212Z,24
2016-05-05T09:39:25.419Z,24
2016-05-05T09:40:24.859Z,28
2016-05-05T09:41:25.143Z,28
2016-05-05T09:42:25.124Z,24
2016-05-05T09:43:25.112Z,28
2016-05-05T09:44:24.926Z,24
2016-05-05T09:45:25.069Z,28
2016-05-05T09:46:25.167Z,28
2016-05-05T09:47:25.122Z,28
2016-05-05T09:48:25.812Z,28
2016-05-05T09:49:24.706Z,28
2016-05-05T09:50:24.833Z,28
2016-05-05T09:51:24.961Z,32
2016-05-05T09:52:24.808Z,28
2016-05-05T09:53:24.950Z,28
2016-05-05T09:54:25.359Z,28
2016-05-05T09:55:24.894Z,28
2016-05-05T09:56:24.724Z,28
2016-05-05T09:57:24.867Z,28
2016-05-05T09:58:24.699Z,32
2016-05-05T09:59:24.826Z,28
2016-05-05T10:00:24.829Z,32
2016-05-05T10:01:24.785Z,32
2016-05-05T10:02:25.162Z,32
2016-05-05T10:03:24.758Z,36
2016-05-05T10:04:24.729Z,36
2016-05-05T10:05:24.717Z,36
2016-05-05T10:06:24.704Z,36
2016-05-05T10:07:24.519Z,36
2016-05-05T10:08:24.365Z,36
2016-05-05T10:09:24.524Z,40
2016-05-05T10:10:25.434Z,40
2016-05-05T10:11:24.576Z,40
2016-05-05T10:12:24.533Z,40
2016-05-05T10:13:24.410Z,40
2016-05-05T10:14:24.397Z,44
2016-05-05T10:15:24.541Z,44
2016-05-05T10:16:24.512Z,48
2016-05-05T10:17:24.327Z,48
2016-05-05T10:18:25.190Z,48
2016-05-05T10:19:24.567Z,48
2016-05-05T10:20:24.538Z,48
2016-05-05T10:21:24.432Z,48
2016-05-05T10:22:24.263Z,52
2016-05-05T10:23:24.391Z,52
2016-05-05T10:24:26.205Z,48
2016-05-05T10:25:24.364Z,24
2016-05-05T10:26:25.180Z,24
2016-05-05T10:27:24.323Z,28
2016-05-05T10:28:27.450Z,28
2016-05-05T10:29:24.157Z,28
2016-05-05T10:30:24.268Z,28
2016-05-05T10:31:24.240Z,24
2016-05-05T10:32:24.228Z,28
2016-05-05T10:33:24.230Z,28
2016-05-05T10:34:24.499Z,28
2016-05-05T10:35:24.188Z,28
2016-05-05T10:36:24.613Z,28
2016-05-05T10:37:24.132Z,28
2016-05-05T10:38:24.118Z,32
2016-05-05T10:39:24.340Z,32
2016-05-05T10:40:23.920Z,32
2016-05-05T10:41:23.907Z,32
2016-05-05T10:42:24.488Z,36
2016-05-05T10:43:24.023Z,32
2016-05-05T10:44:24.540Z,36
2016-05-05T10:45:23.981Z,32
2016-05-05T10:46:23.968Z,32
2016-05-05T10:47:23.956Z,36
2016-05-05T10:48:23.989Z,36
2016-05-05T10:49:23.617Z,36
2016-05-05T10:50:23.900Z,36
2016-05-05T10:51:23.872Z,40
2016-05-05T10:52:23.859Z,40
2016-05-05T10:53:23.846Z,48
2016-05-05T10:54:24.677Z,48
2016-05-05T10:55:24.148Z,48
2016-05-05T10:56:23.651Z,48
2016-05-05T10:57:23.638Z,52
2016-05-05T10:58:23.782Z,52
2016-05-05T10:59:23.813Z,52
2016-05-05T11:00:23.952Z,56
2016-05-05T11:01:23.640Z,56
2016-05-05T11:02:23.905Z,52
2016-05-05T11:03:23.717Z,56
2016-05-05T11:04:23.868Z,56
2016-05-05T11:05:23.872Z,60
2016-05-05T11:06:23.874Z,64
2016-05-05T11:07:23.862Z,64
2016-05-05T11:08:24.177Z,64
2016-05-05T11:09:23.860Z,64
2016-05-05T11:10:23.681Z,68
2016-05-05T11:11:23.830Z,68
2016-05-05T11:12:23.666Z,72
2016-05-05T11:13:23.830Z,72
2016-05-05T11:14:23.788Z,72
2016-05-05T11:15:23.777Z,76
2016-05-05T11:16:25.052Z,72
2016-05-05T11:17:23.599Z,76
2016-05-05T11:18:23.744Z,72
2016-05-05T11:19:23.702Z,72
2016-05-05T11:20:23.705Z,76
2016-05-05T11:21:23.676Z,76
2016-05-05T11:22:23.665Z,76
2016-05-05T11:23:23.806Z,76
2016-05-05T11:24:24.152Z,76
2016-05-05T11:25:23.593Z,80
2016-05-05T11:26:23.596Z,80
2016-05-05T11:27:23.411Z,80
2016-05-05T11:28:23.399Z,80
2016-05-05T11:29:23.214Z,80
2016-05-05T11:30:23.358Z,80
2016-05-05T11:31:23.844Z,80
2016-05-05T11:32:23.489Z,80
2016-05-05T11:33:23.461Z,84
2016-05-05T11:34:23.447Z,80
2016-05-05T11:35:23.433Z,84
2016-05-05T11:36:23.093Z,84
2016-05-05T11:37:23.392Z,84
2016-05-05T11:38:23.207Z,84
2016-05-05T11:39:24.210Z,84
2016-05-05T11:40:23.339Z,84
2016-05-05T11:41:23.310Z,88
2016-05-05T11:42:23.297Z,88
2016-05-05T11:43:23.299Z,88
2016-05-05T11:44:23.255Z,88
2016-05-05T11:45:23.242Z,84
2016-05-05T11:46:23.074Z,92
2016-05-05T11:47:23.857Z,88
2016-05-05T11:48:23.172Z,88
2016-05-05T11:49:23.159Z,88
2016-05-05T11:50:23.162Z,92
2016-05-05T11:51:23.118Z,96
2016-05-05T11:52:23.089Z,96
2016-05-05T11:53:22.951Z,100
2016-05-05T11:54:22.954Z,104
2016-05-05T11:55:23.473Z,104
2016-05-05T11:56:22.726Z,108
2016-05-05T11:57:23.009Z,108
2016-05-05T11:58:22.996Z,112
2016-05-05T11:59:22.983Z,120
2016-05-05T12:00:22.970Z,124
2016-05-05T12:01:22.941Z,128
2016-05-05T12:02:22.944Z,140
2016-05-05T12:03:22.962Z,148
2016-05-05T12:04:22.887Z,164
2016-05-05T12:05:22.875Z,176
2016-05-05T12:06:22.705Z,188
2016-05-05T12:07:22.692Z,200
2016-05-05T12:08:22.835Z,204
2016-05-05T12:09:23.869Z,212
2016-05-05T12:10:22.778Z,228
2016-05-05T12:11:23.031Z,240
2016-05-05T12:12:22.752Z,252
2016-05-05T12:13:22.739Z,256
2016-05-05T12:14:22.554Z,264
2016-05-05T12:15:22.698Z,264
2016-05-05T12:16:22.684Z,264
2016-05-05T12:17:22.516Z,264
2016-05-05T12:18:22.753Z,268
2016-05-05T12:19:22.490Z,268
2016-05-05T12:20:22.462Z,268
2016-05-05T12:21:22.604Z,268
2016-05-05T12:22:22.420Z,284
2016-05-05T12:23:22.390Z,292
2016-05-05T12:24:22.722Z,304
2016-05-05T12:25:22.632Z,316
2016-05-05T12:26:22.634Z,336
2016-05-05T12:27:24.074Z,348
2016-05-05T12:28:22.467Z,364
2016-05-05T12:29:22.454Z,368
2016-05-05T12:30:22.441Z,384
2016-05-05T12:31:22.429Z,388
2016-05-05T12:32:22.259Z,396
2016-05-05T12:33:22.230Z,408
2016-05-05T12:34:22.764Z,420
2016-05-05T12:35:22.377Z,440
2016-05-05T12:36:22.175Z,456
2016-05-05T12:37:22.319Z,460
2016-05-05T12:38:22.306Z,452
2016-05-05T12:39:22.294Z,452
2016-05-05T12:40:22.249Z,452
2016-05-05T12:41:22.252Z,432
2016-05-05T12:42:22.786Z,440
2016-05-05T12:43:22.210Z,440
2016-05-05T12:44:22.182Z,424
2016-05-05T12:45:22.029Z,408
2016-05-05T12:46:22.172Z,408
2016-05-05T12:47:21.830Z,404
2016-05-05T12:48:22.130Z,416
2016-05-05T12:49:22.118Z,424
2016-05-05T12:50:22.651Z,420
2016-05-05T12:51:22.107Z,424
2016-05-05T12:52:21.922Z,432
2016-05-05T12:53:22.050Z,428
2016-05-05T12:54:22.021Z,420
2016-05-05T12:55:22.040Z,412
2016-05-05T12:56:21.996Z,408
2016-05-05T12:57:21.982Z,396
2016-05-05T12:58:22.047Z,384
2016-05-05T12:59:21.941Z,376
2016-05-05T13:00:21.616Z,376
2016-05-05T13:01:21.915Z,372
2016-05-05T13:02:21.762Z,364
2016-05-05T13:03:21.873Z,356
2016-05-05T13:04:21.861Z,352
2016-05-05T13:05:21.848Z,352
2016-05-05T13:06:22.069Z,344
2016-05-05T13:07:21.806Z,336
2016-05-05T13:08:21.794Z,328
2016-05-05T13:09:21.765Z,328
2016-05-05T13:10:21.471Z,324
2016-05-05T13:11:21.739Z,316
2016-05-05T13:12:21.570Z,312
2016-05-05T13:13:21.541Z,308
2016-05-05T13:14:22.091Z,300
2016-05-05T13:15:21.687Z,300
2016-05-05T13:16:21.643Z,292
2016-05-05T13:17:21.630Z,284
2016-05-05T13:18:21.618Z,280
2016-05-05T13:19:21.604Z,272
2016-05-05T13:20:21.576Z,268
2016-05-05T13:21:21.579Z,264
2016-05-05T13:22:21.550Z,260
2016-05-05T13:23:21.396Z,252
2016-05-05T13:24:21.524Z,248
2016-05-05T13:25:22.480Z,244
2016-05-05T13:26:21.498Z,236
2016-05-05T13:27:21.470Z,232
2016-05-05T13:28:21.473Z,228
2016-05-05T13:29:21.740Z,224
2016-05-05T13:30:21.415Z,220
2016-05-05T13:31:21.231Z,212
2016-05-05T13:32:21.373Z,208
2016-05-05T13:33:21.204Z,208
2016-05-05T13:34:21.036Z,196
2016-05-05T13:35:21.179Z,192
2016-05-05T13:36:21.166Z,188
2016-05-05T13:37:26.386Z,184
2016-05-05T13:38:21.140Z,184
2016-05-05T13:39:22.002Z,176
2016-05-05T13:40:23.052Z,168
2016-05-05T13:41:21.226Z,168
2016-05-05T13:42:21.041Z,164
2016-05-05T13:43:21.044Z,152
2016-05-05T13:44:21.172Z,156
2016-05-05T13:45:21.815Z,148
2016-05-05T13:46:21.146Z,144
2016-05-05T13:47:21.133Z,144
2016-05-05T13:48:21.105Z,140
2016-05-05T13:49:20.935Z,136
2016-05-05T13:50:20.921Z,132
2016-05-05T13:51:20.910Z,132
2016-05-05T13:52:20.740Z,128
2016-05-05T13:53:21.680Z,124
2016-05-05T13:54:20.996Z,124
2016-05-05T13:55:21.201Z,120
2016-05-05T13:56:20.954Z,116
2016-05-05T13:57:20.816Z,116
2016-05-05T13:58:20.787Z,112
2016-05-05T13:59:20.931Z,112
2016-05-05T14:00:20.902Z,108
2016-05-05T14:01:20.889Z,112
2016-05-05T14:02:20.876Z,112
2016-05-05T14:03:21.097Z,112
2016-05-05T14:04:20.850Z,112
2016-05-05T14:05:20.822Z,116
2016-05-05T14:06:20.793Z,112
2016-05-05T14:07:20.639Z,116
2016-05-05T14:08:20.767Z,116
2016-05-05T14:09:20.895Z,112
2016-05-05T14:10:22.945Z,116
2016-05-05T14:11:21.166Z,112
2016-05-05T14:12:20.544Z,112
2016-05-05T14:13:20.687Z,112
2016-05-05T14:14:20.659Z,112
2016-05-05T14:15:20.661Z,112
2016-05-05T14:16:20.477Z,112
2016-05-05T14:17:21.072Z,116
2016-05-05T14:18:20.451Z,116
2016-05-05T14:19:21.171Z,112
2016-05-05T14:20:20.409Z,112
2016-05-05T14:21:20.553Z,108
2016-05-05T14:22:20.540Z,112
2016-05-05T14:23:20.526Z,116
2016-05-05T14:24:20.357Z,112
2016-05-05T14:25:20.360Z,116
2016-05-05T14:26:20.316Z,116
2016-05-05T14:27:21.146Z,116
2016-05-05T14:28:20.274Z,116
2016-05-05T14:29:20.402Z,116
2016-05-05T14:30:20.374Z,112